CheckWX is a tool to help pilots better visualize weather data.  It is not intended as a substitute for an official pre-flight weather briefing.

04:51:46 UTC

KLCK TAF
Rickenbacker International Airport
Columbus, Ohio, USA
KLCK 252330Z 2600/2624 10008KT P6SM BKN250 FM260800 11007KT P6SM BKN050 FM261500 14009KT P6SM BKN070 OVC120 FM261800 16009KT P6SM OVC050 FM262100 15007KT P6SM VCSH SCT025 OVC040

Aug-26@
00:00 UTC

Aug-26 @ 00:00 UTC

Aug-26@
08:00 UTC

Aug-26 @ 08:00 UTC

KLCK 252330Z 2600/2624 10008KT P6SM BKN250
Wind
  • 100° at 8 KTS
Cloud Levels
  • Broken at 25,000' AGL

Aug-26@
08:00 UTC

Aug-26 @ 08:00 UTC

Aug-26@
15:00 UTC

Aug-26 @ 15:00 UTC

FM260800 11007KT P6SM BKN050

From

From Standard forecast or significant change

Wind
  • 110° at 7 KTS
Cloud Levels
  • Broken at 5,000' AGL

Aug-26@
15:00 UTC

Aug-26 @ 15:00 UTC

Aug-26@
18:00 UTC

Aug-26 @ 18:00 UTC

FM261500 14009KT P6SM BKN070 OVC120

From

From Standard forecast or significant change

Wind
  • 140° at 9 KTS
Cloud Levels
  • Broken at 7,000' AGL
  • Overcast at 12,000' AGL

Aug-26@
18:00 UTC

Aug-26 @ 18:00 UTC

Aug-26@
21:00 UTC

Aug-26 @ 21:00 UTC

FM261800 16009KT P6SM OVC050

From

From Standard forecast or significant change

Wind
  • 160° at 9 KTS
Cloud Levels
  • Overcast at 5,000' AGL

Aug-26@
21:00 UTC

Aug-26 @ 21:00 UTC

Aug-27@
00:00 UTC

Aug-27 @ 00:00 UTC

FM262100 15007KT P6SM VCSH SCT025 OVC040

From

From Standard forecast or significant change

Wind
  • 150° at 7 KTS
Cloud Levels
  • Scattered at 2,500' AGL
  • Overcast at 4,000' AGL